Tropical Cyclones
[Index]
Main Index Home Page Stock Weather Photos Extreme Storms Discussion Storm News and Storm Chasing Reports Tropical Cyclones / Hurricanes / Typhoons Weather Data and Links Wild Fires / Bushfires Weather Observation Techniques Weather Picture Catalogue Tornado Pictures and Reports Stock Video Footage and DVDs for sale
Season 2004-2005 Tropical Cyclone HARVEY Track Map
Season 2004-2005 Summaries (Operational Data): [AU] [SIO] [SPAC] [SH]
<<- Previous TC | 2004-2005 Season | Next TC ->>

click for intensity scale information  Lat/long Grid: Show Hide

 Date Labels: Show Hide

Operational Tropical Cyclone Data : JTWC Advisories

Name: HARVEY
Number: 0516

05 Feb 2005 08:00 UTC to 14 Feb 2005 12:00 UTC

    date/time    lat    long     hPa   cat  kts
2005-02-05 08   13.8   140.0     998         30          
2005-02-05 12   14.1   140.0     996         30          
2005-02-05 19   14.0   140.0     999         30          
2005-02-06 00   14.0   139.7     995    1    40          
2005-02-06 06   14.6   139.7     992    1    40          
2005-02-06 12   14.6   139.3     990    1    40          
2005-02-06 18   15.0   139.3     988    1    45          
2005-02-07 00   15.7   138.8     978    2    60          
2005-02-07 03   15.9   138.4     970    3    75          
2005-02-07 06   16.3   137.8     965    3    85          
2005-02-07 09   16.5   137.6     970    3    75          
2005-02-07 12   16.7   137.5     975    2    55          
2005-02-07 15   16.8   137.2     985    1    45          
2005-02-08 05   18.0   137.5                 25          
2005-02-11 05   23.0   155.0     988    1    40          
2005-02-11 11   22.7   155.3    1000    1    40          
2005-02-11 17   22.0   154.0     999         30          
2005-02-12 06   22.9   154.4    1003    1    40          
2005-02-12 11   22.0   154.6    1002    1    40          
2005-02-12 17   22.0   154.6    1002    1    40          
2005-02-13 00   22.4   155.1    1002    1    40          
2005-02-13 06   22.0   155.0    1002    1    40          
2005-02-13 11   22.0   155.0    1002    1    40          
2005-02-13 17   22.0   155.0    1002    1    40          
2005-02-13 23   19.5   153.0    1007    1    40          
2005-02-14 05   18.5   151.4    1007    1    40          
2005-02-14 12   16.5   151.5    1005         30          
Winds are 10-min average.

Tropical cyclone tracks developed by Michael Bath using operational warnings and advisories and Google Maps.


[Australian Severe Weather index] [Copyright Notice] [Email Contacts] [Search This Site] [Privacy Policy]
Document: tropical_cyclone_harvey.htm Updated: 28 May 2013